createdAt,value
2018-02-27T00:00:40.655Z,0
2018-02-27T00:01:50.714Z,0
2018-02-27T00:03:00.728Z,0
2018-02-27T00:04:10.450Z,0
2018-02-27T00:05:19.905Z,0
2018-02-27T00:06:29.627Z,0
2018-02-27T00:07:39.613Z,0
2018-02-27T00:08:49.598Z,0
2018-02-27T00:09:59.587Z,0
2018-02-27T00:11:09.312Z,0
2018-02-27T00:12:19.305Z,0
2018-02-27T00:13:29.389Z,0
2018-02-27T00:14:39.123Z,0
2018-02-27T00:15:49.146Z,0
2018-02-27T00:16:58.869Z,0
2018-02-27T00:18:08.860Z,0
2018-02-27T00:19:18.858Z,0
2018-02-27T00:20:28.838Z,0
2018-02-27T00:21:38.571Z,0
2018-02-27T00:22:48.566Z,0
2018-02-27T00:23:58.289Z,0
2018-02-27T00:25:08.015Z,0
2018-02-27T00:26:17.732Z,0
2018-02-27T00:27:27.725Z,0
2018-02-27T00:28:37.439Z,0
2018-02-27T00:29:47.161Z,0
2018-02-27T00:30:56.887Z,0
2018-02-27T00:32:06.603Z,0
2018-02-27T00:33:16.596Z,0
2018-02-27T00:34:26.316Z,0
2018-02-27T00:35:36.032Z,0
2018-02-27T00:36:46.019Z,0
2018-02-27T00:37:56.013Z,0
2018-02-27T00:39:05.786Z,0
2018-02-27T00:40:15.509Z,0
2018-02-27T00:41:24.957Z,0
2018-02-27T00:42:34.940Z,0
2018-02-27T00:43:44.668Z,0
2018-02-27T00:44:54.389Z,0
2018-02-27T00:46:04.379Z,0
2018-02-27T00:47:14.103Z,0
2018-02-27T00:48:24.086Z,0
2018-02-27T00:49:33.541Z,0
2018-02-27T00:50:43.539Z,0
2018-02-27T00:51:53.529Z,0
2018-02-27T00:53:03.245Z,0
2018-02-27T00:54:12.968Z,0
2018-02-27T00:55:22.953Z,0
2018-02-27T00:56:32.945Z,0
2018-02-27T00:57:42.928Z,0
2018-02-27T00:58:52.909Z,0
2018-02-27T01:00:02.913Z,0
2018-02-27T01:01:12.636Z,0
2018-02-27T01:02:22.634Z,0
2018-02-27T01:03:32.621Z,0
2018-02-27T01:04:42.611Z,0
2018-02-27T01:05:52.058Z,0
2018-02-27T01:07:02.043Z,0
2018-02-27T01:08:11.771Z,0
2018-02-27T01:09:21.757Z,0
2018-02-27T01:10:31.740Z,0
2018-02-27T01:11:41.720Z,0
2018-02-27T01:12:51.706Z,0
2018-02-27T01:14:01.423Z,0
2018-02-27T01:15:11.406Z,0
2018-02-27T01:16:21.397Z,0
2018-02-27T01:17:31.124Z,0
2018-02-27T01:18:40.845Z,0
2018-02-27T01:19:50.835Z,0
2018-02-27T01:21:00.554Z,0
2018-02-27T01:22:10.009Z,0
2018-02-27T01:23:19.992Z,0
2018-02-27T01:24:29.977Z,0
2018-02-27T01:25:39.430Z,0
2018-02-27T01:26:49.413Z,0
2018-02-27T01:27:59.406Z,0
2018-02-27T01:29:09.391Z,0
2018-02-27T01:30:18.844Z,0
2018-02-27T01:31:28.563Z,0
2018-02-27T01:32:38.278Z,0
2018-02-27T01:33:48.268Z,0
2018-02-27T01:34:58.300Z,0
2018-02-27T01:36:07.752Z,0
2018-02-27T01:37:17.480Z,0
2018-02-27T01:38:27.467Z,0
2018-02-27T01:39:37.451Z,0
2018-02-27T01:40:47.431Z,0
2018-02-27T01:41:57.411Z,0
2018-02-27T01:43:07.400Z,0
2018-02-27T01:44:17.376Z,0
2018-02-27T01:45:26.826Z,0
2018-02-27T01:46:36.806Z,0
2018-02-27T01:47:46.539Z,0
2018-02-27T01:48:56.254Z,0
2018-02-27T01:50:05.978Z,0
2018-02-27T01:51:15.706Z,0
2018-02-27T01:52:25.424Z,0
2018-02-27T01:53:35.410Z,0
2018-02-27T01:54:44.859Z,0
2018-02-27T01:55:54.577Z,0
2018-02-27T01:57:04.561Z,0
2018-02-27T01:58:14.543Z,0
2018-02-27T01:59:24.537Z,0
2018-02-27T02:00:34.519Z,0
2018-02-27T02:01:43.982Z,0
2018-02-27T02:02:53.966Z,0
2018-02-27T02:04:03.690Z,0
2018-02-27T02:05:13.684Z,0
2018-02-27T02:06:23.399Z,0
2018-02-27T02:07:32.855Z,0
2018-02-27T02:08:42.845Z,0
2018-02-27T02:09:52.297Z,0
2018-02-27T02:11:02.286Z,0
2018-02-27T02:12:12.277Z,0
2018-02-27T02:13:22.260Z,0
2018-02-27T02:14:32.249Z,0
2018-02-27T02:15:41.965Z,0
2018-02-27T02:16:51.951Z,0
2018-02-27T02:18:01.719Z,0
2018-02-27T02:19:11.704Z,0
2018-02-27T02:20:21.687Z,0
2018-02-27T02:21:31.680Z,0
2018-02-27T02:22:41.404Z,0
2018-02-27T02:23:51.126Z,0
2018-02-27T02:25:00.849Z,0
2018-02-27T02:26:10.573Z,0
2018-02-27T02:27:20.565Z,0
2018-02-27T02:28:30.556Z,0
2018-02-27T02:29:40.006Z,0
2018-02-27T02:30:49.989Z,0
2018-02-27T02:31:59.712Z,0
2018-02-27T02:33:09.178Z,0
2018-02-27T02:34:18.635Z,0
2018-02-27T02:35:28.622Z,0
2018-02-27T02:36:38.354Z,0
2018-02-27T02:37:48.362Z,0
2018-02-27T02:38:58.085Z,0
2018-02-27T02:40:07.548Z,0
2018-02-27T02:41:17.530Z,0
2018-02-27T02:42:27.248Z,0
2018-02-27T02:43:36.988Z,0
2018-02-27T02:44:46.977Z,0
2018-02-27T02:45:56.965Z,0
2018-02-27T02:47:06.950Z,0
2018-02-27T02:48:16.672Z,0
2018-02-27T02:49:26.392Z,0
2018-02-27T02:50:36.215Z,0
2018-02-27T02:51:46.214Z,0
2018-02-27T02:52:56.198Z,0
2018-02-27T02:54:05.642Z,0
2018-02-27T02:55:15.620Z,0
2018-02-27T02:56:25.598Z,0
2018-02-27T02:57:35.586Z,0
2018-02-27T02:58:45.570Z,0
2018-02-27T02:59:55.285Z,0
2018-02-27T03:01:04.993Z,0
2018-02-27T03:02:14.976Z,0
2018-02-27T03:03:24.696Z,0
2018-02-27T03:04:34.685Z,0
2018-02-27T03:05:44.679Z,0
2018-02-27T03:06:54.400Z,0
2018-02-27T03:08:04.387Z,0
2018-02-27T03:09:14.377Z,0
2018-02-27T03:10:23.834Z,0
2018-02-27T03:11:33.559Z,0
2018-02-27T03:12:43.287Z,0
2018-02-27T03:13:53.059Z,0
2018-02-27T03:15:03.048Z,0
2018-02-27T03:16:12.763Z,0
2018-02-27T03:17:22.493Z,0
2018-02-27T03:18:32.213Z,0
2018-02-27T03:19:42.210Z,0
2018-02-27T03:20:52.206Z,0
2018-02-27T03:22:02.192Z,0
2018-02-27T03:23:11.957Z,0
2018-02-27T03:24:21.949Z,0
2018-02-27T03:25:31.935Z,0
2018-02-27T03:26:41.921Z,0
2018-02-27T03:27:51.901Z,0
2018-02-27T03:29:01.361Z,0
2018-02-27T03:30:10.558Z,0
2018-02-27T03:31:20.562Z,0
2018-02-27T03:32:30.550Z,0
2018-02-27T03:33:40.533Z,0
2018-02-27T03:34:50.511Z,0
2018-02-27T03:36:00.504Z,0
2018-02-27T03:37:10.060Z,0
2018-02-27T03:38:20.046Z,0
2018-02-27T03:39:30.044Z,0
2018-02-27T03:40:40.041Z,0
2018-02-27T03:41:49.761Z,0
2018-02-27T03:42:59.745Z,0
2018-02-27T03:44:09.726Z,0
2018-02-27T03:45:19.704Z,0
2018-02-27T03:46:29.691Z,0
2018-02-27T03:47:39.674Z,0
2018-02-27T03:48:49.656Z,0
2018-02-27T03:49:59.645Z,0
2018-02-27T03:51:09.096Z,0
2018-02-27T03:52:19.074Z,0
2018-02-27T03:53:29.067Z,0
2018-02-27T03:54:39.055Z,0
2018-02-27T03:55:49.042Z,0
2018-02-27T03:56:59.026Z,0
2018-02-27T03:58:09.008Z,0
2018-02-27T03:59:19.001Z,0
2018-02-27T04:03:25.388Z,0
2018-02-27T04:04:35.382Z,0
2018-02-27T04:05:45.104Z,0
2018-02-27T04:06:54.820Z,0
2018-02-27T04:08:04.267Z,0
2018-02-27T04:09:14.247Z,0
2018-02-27T04:10:23.961Z,0
2018-02-27T04:11:33.942Z,0
2018-02-27T04:12:43.928Z,0
2018-02-27T04:13:53.650Z,0
2018-02-27T04:15:03.472Z,0
2018-02-27T04:16:13.191Z,0
2018-02-27T04:17:22.907Z,0
2018-02-27T04:18:32.892Z,0
2018-02-27T04:19:42.878Z,0
2018-02-27T04:20:52.869Z,0
2018-02-27T04:22:02.853Z,0
2018-02-27T04:23:12.304Z,0
2018-02-27T04:24:22.030Z,0
2018-02-27T04:25:32.017Z,0
2018-02-27T04:26:41.999Z,0
2018-02-27T04:27:51.709Z,0
2018-02-27T04:29:01.741Z,0
2018-02-27T04:30:11.194Z,0
2018-02-27T04:31:20.916Z,0
2018-02-27T04:32:30.637Z,0
2018-02-27T04:33:40.622Z,0
2018-02-27T04:34:50.349Z,0
2018-02-27T04:36:00.337Z,0
2018-02-27T04:37:09.786Z,0
2018-02-27T04:38:19.778Z,0
2018-02-27T04:39:29.492Z,0
2018-02-27T04:40:39.486Z,0
2018-02-27T04:41:49.210Z,0
2018-02-27T04:42:58.924Z,0
2018-02-27T04:44:08.640Z,0
2018-02-27T04:45:18.644Z,0
2018-02-27T04:46:28.361Z,0
2018-02-27T04:47:38.351Z,0
2018-02-27T04:48:48.229Z,0
2018-02-27T04:49:58.212Z,0
2018-02-27T04:51:08.199Z,0
2018-02-27T04:52:17.909Z,0
2018-02-27T04:53:27.360Z,0
2018-02-27T04:54:37.089Z,0
2018-02-27T04:55:47.076Z,0
2018-02-27T04:56:57.070Z,0
2018-02-27T04:58:07.055Z,0
2018-02-27T04:59:17.039Z,0
2018-02-27T05:00:26.760Z,0
2018-02-27T05:01:35.942Z,0
2018-02-27T05:02:45.660Z,0
2018-02-27T05:03:55.650Z,0
2018-02-27T05:05:05.639Z,0
2018-02-27T05:06:15.638Z,0
2018-02-27T05:07:25.363Z,0
2018-02-27T05:08:35.085Z,0
2018-02-27T05:09:45.162Z,0
2018-02-27T05:10:55.144Z,0
2018-02-27T05:12:04.596Z,0
2018-02-27T05:13:14.942Z,0
2018-02-27T05:14:24.926Z,0
2018-02-27T05:15:34.653Z,0
2018-02-27T05:16:44.370Z,0
2018-02-27T05:17:53.821Z,0
2018-02-27T05:19:03.532Z,0
2018-02-27T05:20:13.517Z,0
2018-02-27T05:21:23.239Z,0
2018-02-27T05:22:33.228Z,0
2018-02-27T05:23:43.250Z,0
2018-02-27T05:24:53.263Z,0
2018-02-27T05:26:02.976Z,0
2018-02-27T05:27:12.691Z,0
2018-02-27T05:28:22.407Z,0
2018-02-27T05:29:32.121Z,0
2018-02-27T05:30:42.270Z,0
2018-02-27T05:31:52.260Z,0
2018-02-27T05:33:01.711Z,0
2018-02-27T05:34:11.705Z,0
2018-02-27T05:35:21.704Z,0
2018-02-27T05:36:31.416Z,0
2018-02-27T05:37:40.865Z,0
2018-02-27T05:38:50.321Z,0
2018-02-27T05:40:00.309Z,0
2018-02-27T05:41:10.301Z,0
2018-02-27T05:42:20.288Z,0
2018-02-27T05:43:30.027Z,0
2018-02-27T05:44:40.006Z,0
2018-02-27T05:45:49.993Z,0
2018-02-27T05:47:00.000Z,0
2018-02-27T05:48:09.718Z,0
2018-02-27T05:49:19.241Z,0
2018-02-27T05:50:29.220Z,0
2018-02-27T05:51:38.935Z,0
2018-02-27T05:52:48.917Z,0
2018-02-27T05:53:58.633Z,0
2018-02-27T05:55:08.359Z,0
2018-02-27T05:56:18.076Z,0
2018-02-27T05:57:27.787Z,0
2018-02-27T05:58:37.782Z,0
2018-02-27T05:59:47.547Z,0
2018-02-27T06:00:57.279Z,0
2018-02-27T06:02:07.268Z,0
2018-02-27T06:03:17.259Z,0
2018-02-27T06:04:26.981Z,0
2018-02-27T06:05:36.437Z,0
2018-02-27T06:06:46.175Z,0
2018-02-27T06:07:55.997Z,0
2018-02-27T06:09:05.713Z,0
2018-02-27T06:10:15.700Z,5
2018-02-27T06:11:25.684Z,5
2018-02-27T06:12:35.136Z,5
2018-02-27T06:13:45.122Z,5
2018-02-27T06:14:54.839Z,5
2018-02-27T06:16:04.829Z,5
2018-02-27T06:17:14.908Z,10
2018-02-27T06:18:24.899Z,10
2018-02-27T06:19:34.651Z,10
2018-02-27T06:20:44.367Z,10
2018-02-27T06:21:54.084Z,15
2018-02-27T06:23:03.799Z,15
2018-02-27T06:24:13.511Z,15
2018-02-27T06:25:22.960Z,15
2018-02-27T06:26:32.943Z,15
2018-02-27T06:27:42.670Z,20
2018-02-27T06:28:52.653Z,20
2018-02-27T06:30:02.377Z,20
2018-02-27T06:31:12.104Z,25
2018-02-27T06:32:21.831Z,25
2018-02-27T06:33:31.811Z,25
2018-02-27T06:34:41.794Z,30
2018-02-27T06:35:51.512Z,30
2018-02-27T06:37:01.229Z,35
2018-02-27T06:38:11.207Z,35
2018-02-27T06:39:20.657Z,35
2018-02-27T06:40:30.637Z,40
2018-02-27T06:41:40.348Z,40
2018-02-27T06:42:50.063Z,40
2018-02-27T06:43:59.782Z,45
2018-02-27T06:45:09.501Z,50
2018-02-27T06:46:18.949Z,50
2018-02-27T06:47:28.404Z,55
2018-02-27T06:48:38.393Z,55
2018-02-27T06:49:48.120Z,60
2018-02-27T06:50:57.861Z,60
2018-02-27T06:52:07.582Z,65
2018-02-27T06:53:17.572Z,65
2018-02-27T06:54:27.290Z,65
2018-02-27T06:55:37.007Z,70
2018-02-27T06:56:46.989Z,70
2018-02-27T06:57:56.704Z,75
2018-02-27T06:59:06.164Z,75
2018-02-27T07:00:16.149Z,80
2018-02-27T07:01:25.601Z,80
2018-02-27T07:02:35.318Z,85
2018-02-27T07:03:45.397Z,85
2018-02-27T07:04:55.375Z,85
2018-02-27T07:06:05.093Z,90
2018-02-27T07:07:15.075Z,95
2018-02-27T07:08:24.522Z,95
2018-02-27T07:09:34.238Z,95
2018-02-27T07:10:44.278Z,100
2018-02-27T07:11:54.272Z,100
2018-02-27T07:13:03.720Z,105
2018-02-27T07:14:13.440Z,110
2018-02-27T07:15:23.422Z,110
2018-02-27T07:16:32.606Z,105
2018-02-27T07:17:42.588Z,105
2018-02-27T07:18:52.308Z,105
2018-02-27T07:20:02.026Z,110
2018-02-27T07:21:11.745Z,120
2018-02-27T07:22:21.465Z,115
2018-02-27T07:23:31.449Z,115
2018-02-27T07:24:41.434Z,120
2018-02-27T07:25:51.430Z,125
2018-02-27T07:27:01.412Z,130
2018-02-27T07:28:11.134Z,130
2018-02-27T07:29:20.851Z,130
2018-02-27T07:30:30.569Z,135
2018-02-27T07:31:40.562Z,135
2018-02-27T07:32:50.649Z,140
2018-02-27T07:34:00.625Z,155
2018-02-27T07:35:10.618Z,160
2018-02-27T07:36:20.603Z,165
2018-02-27T07:37:30.589Z,160
2018-02-27T07:38:40.307Z,165
2018-02-27T07:39:50.294Z,170
2018-02-27T07:41:00.014Z,175
2018-02-27T07:42:09.489Z,165
2018-02-27T07:43:19.202Z,170
2018-02-27T07:44:28.931Z,165
2018-02-27T07:45:38.382Z,160
2018-02-27T07:46:48.363Z,160
2018-02-27T07:47:58.346Z,160
2018-02-27T07:49:08.334Z,160
2018-02-27T07:50:18.327Z,165
2018-02-27T07:51:28.051Z,180
2018-02-27T07:52:37.669Z,185
2018-02-27T07:53:47.447Z,190
2018-02-27T07:54:57.164Z,190
2018-02-27T07:56:07.154Z,190
2018-02-27T07:57:17.143Z,195
2018-02-27T07:58:26.866Z,190
2018-02-27T07:59:36.589Z,190
2018-02-27T08:00:46.571Z,190
2018-02-27T08:01:56.557Z,200
2018-02-27T08:03:06.276Z,205
2018-02-27T08:04:16.317Z,200
2018-02-27T08:05:26.032Z,200
2018-02-27T08:06:36.018Z,210
2018-02-27T08:07:45.741Z,225
2018-02-27T08:08:55.735Z,235
2018-02-27T08:10:05.242Z,250
2018-02-27T08:11:14.972Z,240
2018-02-27T08:12:24.962Z,240
2018-02-27T08:13:34.683Z,240
2018-02-27T08:14:44.668Z,225
2018-02-27T08:15:54.659Z,240
2018-02-27T08:17:04.389Z,235
2018-02-27T08:18:14.371Z,230
2018-02-27T08:19:24.361Z,245
2018-02-27T08:20:34.510Z,240
2018-02-27T08:21:44.502Z,245
2018-02-27T08:22:54.218Z,245
2018-02-27T08:24:03.933Z,235
2018-02-27T08:25:13.752Z,220
2018-02-27T08:26:23.203Z,210
2018-02-27T08:27:33.187Z,220
2018-02-27T08:28:43.311Z,210
2018-02-27T08:29:53.307Z,215
2018-02-27T08:31:03.349Z,215
2018-02-27T08:32:13.080Z,210
2018-02-27T08:33:23.064Z,205
2018-02-27T08:34:32.785Z,205
2018-02-27T08:35:42.236Z,200
2018-02-27T08:36:52.223Z,200
2018-02-27T08:38:01.425Z,205
2018-02-27T08:39:11.155Z,210
2018-02-27T08:40:20.876Z,210
2018-02-27T08:41:30.600Z,210
2018-02-27T08:42:40.586Z,220
2018-02-27T08:43:50.606Z,230
2018-02-27T08:45:00.588Z,255
2018-02-27T08:46:10.052Z,255
2018-02-27T08:47:19.505Z,260
2018-02-27T08:48:29.497Z,285
2018-02-27T08:49:39.489Z,305
2018-02-27T08:50:49.476Z,325
2018-02-27T08:51:59.199Z,285
2018-02-27T08:53:09.182Z,300
2018-02-27T08:54:18.906Z,315
2018-02-27T08:55:28.895Z,300
2018-02-27T08:56:38.378Z,315
2018-02-27T08:57:48.371Z,370
2018-02-27T08:58:58.360Z,335
2018-02-27T09:00:07.814Z,300
2018-02-27T09:01:17.801Z,310
2018-02-27T09:02:27.528Z,295
2018-02-27T09:03:36.979Z,310
2018-02-27T09:04:46.974Z,310
2018-02-27T09:05:56.698Z,300
2018-02-27T09:07:06.686Z,295
2018-02-27T09:08:16.783Z,290
2018-02-27T09:09:26.505Z,300
2018-02-27T09:10:36.493Z,300
2018-02-27T09:11:46.480Z,305
2018-02-27T09:12:56.477Z,300
2018-02-27T09:14:06.467Z,305
2018-02-27T09:15:16.260Z,305
2018-02-27T09:16:26.246Z,310
2018-02-27T09:17:36.261Z,305
2018-02-27T09:18:45.724Z,265
2018-02-27T09:19:55.181Z,315
2018-02-27T09:21:04.362Z,315
2018-02-27T09:22:14.090Z,305
2018-02-27T09:23:24.081Z,320
2018-02-27T09:24:34.073Z,320
2018-02-27T09:25:44.182Z,310
2018-02-27T09:26:53.641Z,340
2018-02-27T09:28:03.663Z,300
2018-02-27T09:29:13.653Z,320
2018-02-27T09:30:23.372Z,310
2018-02-27T09:31:33.090Z,285
2018-02-27T09:32:42.808Z,335
2018-02-27T09:33:52.796Z,285
2018-02-27T09:35:02.988Z,315
2018-02-27T09:36:12.173Z,320
2018-02-27T09:37:21.892Z,315
2018-02-27T09:38:32.050Z,330
2018-02-27T09:39:42.051Z,395
2018-02-27T09:40:51.562Z,335
2018-02-27T09:42:01.300Z,325
2018-02-27T09:43:10.751Z,340
2018-02-27T09:44:20.737Z,350
2018-02-27T09:45:30.739Z,350
2018-02-27T09:46:40.192Z,360
2018-02-27T09:47:50.190Z,375
2018-02-27T09:49:00.178Z,380
2018-02-27T09:50:09.903Z,380
2018-02-27T09:51:19.626Z,425
2018-02-27T09:52:29.077Z,530
2018-02-27T09:53:39.071Z,560
2018-02-27T09:54:48.797Z,550
2018-02-27T09:55:58.784Z,495
2018-02-27T09:57:08.777Z,565
2018-02-27T09:58:18.778Z,585
2018-02-27T09:59:28.507Z,585
2018-02-27T10:00:38.495Z,600
2018-02-27T10:01:48.253Z,605
2018-02-27T10:02:57.982Z,640
2018-02-27T10:04:07.979Z,485
2018-02-27T10:05:17.706Z,495
2018-02-27T10:06:27.429Z,505
2018-02-27T10:07:37.426Z,585
2018-02-27T10:08:47.149Z,790
2018-02-27T10:09:57.139Z,830
2018-02-27T10:11:06.653Z,770
2018-02-27T10:12:16.648Z,550
2018-02-27T10:13:26.646Z,480
2018-02-27T10:14:36.380Z,480
2018-02-27T10:15:46.102Z,510
2018-02-27T10:16:56.101Z,660
2018-02-27T10:18:05.836Z,715
2018-02-27T10:19:15.562Z,655
2018-02-27T10:20:25.286Z,625
2018-02-27T10:21:35.274Z,575
2018-02-27T10:22:44.999Z,575
2018-02-27T10:23:54.732Z,595
2018-02-27T10:25:04.454Z,665
2018-02-27T10:26:14.440Z,770
2018-02-27T10:27:23.996Z,815
2018-02-27T10:28:33.722Z,700
2018-02-27T10:29:43.708Z,565
2018-02-27T10:30:53.897Z,645
2018-02-27T10:32:03.618Z,610
2018-02-27T10:33:13.349Z,525
2018-02-27T10:34:23.075Z,395
2018-02-27T10:35:33.081Z,360
2018-02-27T10:36:43.118Z,385
2018-02-27T10:37:52.840Z,350
2018-02-27T10:39:02.570Z,430
2018-02-27T10:40:12.035Z,435
2018-02-27T10:41:22.024Z,395
2018-02-27T10:42:32.021Z,335
2018-02-27T10:43:42.008Z,370
2018-02-27T10:44:51.995Z,375
2018-02-27T10:46:01.721Z,375
2018-02-27T10:47:11.450Z,420
2018-02-27T10:48:21.457Z,365
2018-02-27T10:49:31.444Z,405
2018-02-27T10:50:41.536Z,370
2018-02-27T10:51:51.266Z,500
2018-02-27T10:53:00.988Z,470
2018-02-27T10:54:10.709Z,525
2018-02-27T10:55:20.165Z,560
2018-02-27T10:56:29.890Z,585
2018-02-27T10:57:39.881Z,555
2018-02-27T10:58:49.601Z,560
2018-02-27T10:59:59.319Z,610
2018-02-27T11:01:09.039Z,650
2018-02-27T11:02:19.027Z,645
2018-02-27T11:03:29.015Z,675
2018-02-27T11:04:38.738Z,620
2018-02-27T11:05:48.469Z,550
2018-02-27T11:06:57.923Z,545
2018-02-27T11:08:07.746Z,575
2018-02-27T11:09:17.237Z,595
2018-02-27T11:10:26.962Z,590
2018-02-27T11:11:36.952Z,540
2018-02-27T11:12:46.959Z,540
2018-02-27T11:13:56.690Z,550
2018-02-27T11:15:05.876Z,575
2018-02-27T11:16:15.656Z,610
2018-02-27T11:17:25.652Z,705
2018-02-27T11:18:35.640Z,765
2018-02-27T11:19:45.626Z,595
2018-02-27T11:20:55.619Z,530
2018-02-27T11:22:05.607Z,510
2018-02-27T11:23:15.600Z,485
2018-02-27T11:24:25.329Z,475
2018-02-27T11:25:35.051Z,460
2018-02-27T11:26:45.039Z,455
2018-02-27T11:27:54.760Z,475
2018-02-27T11:29:04.484Z,470
2018-02-27T11:30:14.237Z,475
2018-02-27T11:31:23.677Z,495
2018-02-27T11:32:33.406Z,480
2018-02-27T11:33:43.399Z,500
2018-02-27T11:34:53.129Z,480
2018-02-27T11:36:02.857Z,430
2018-02-27T11:37:12.849Z,405
2018-02-27T11:38:22.583Z,435
2018-02-27T11:39:32.308Z,480
2018-02-27T11:40:42.292Z,555
2018-02-27T11:41:52.014Z,575
2018-02-27T11:43:01.836Z,465
2018-02-27T11:44:11.828Z,450
2018-02-27T11:45:21.820Z,455
2018-02-27T11:46:31.819Z,430
2018-02-27T11:47:41.276Z,435
2018-02-27T11:48:50.991Z,485
2018-02-27T11:50:00.450Z,445
2018-02-27T11:51:09.917Z,420
2018-02-27T11:52:19.908Z,440
2018-02-27T11:53:29.640Z,490
2018-02-27T11:54:39.631Z,545
2018-02-27T11:55:49.637Z,550
2018-02-27T11:56:59.626Z,615
2018-02-27T11:58:09.616Z,515
2018-02-27T11:59:19.606Z,550
2018-02-27T12:00:29.679Z,600
2018-02-27T12:01:39.763Z,590
2018-02-27T12:02:49.765Z,485
2018-02-27T12:03:59.492Z,475
2018-02-27T12:05:09.222Z,415
2018-02-27T12:06:19.213Z,405
2018-02-27T12:07:29.238Z,435
2018-02-27T12:08:39.243Z,590
2018-02-27T12:09:49.244Z,540
2018-02-27T12:10:59.235Z,485
2018-02-27T12:12:09.226Z,625
2018-02-27T12:13:18.955Z,850
2018-02-27T12:14:28.946Z,955
2018-02-27T12:15:38.674Z,1045
2018-02-27T12:16:48.401Z,1055
2018-02-27T12:17:57.878Z,1070
2018-02-27T12:19:07.333Z,1050
2018-02-27T12:20:17.065Z,1045
2018-02-27T12:21:26.795Z,1050
2018-02-27T12:22:36.523Z,1015
2018-02-27T12:23:46.515Z,955
2018-02-27T12:24:56.503Z,950
2018-02-27T12:26:05.976Z,975
2018-02-27T12:27:15.975Z,965
2018-02-27T12:28:25.976Z,940
2018-02-27T12:29:35.443Z,955
2018-02-27T12:30:45.236Z,960
2018-02-27T12:31:55.234Z,970
2018-02-27T12:33:04.433Z,980
2018-02-27T12:34:14.434Z,1050
2018-02-27T12:35:24.168Z,1080
2018-02-27T12:36:34.185Z,1145
2018-02-27T12:37:44.182Z,1245
2018-02-27T12:38:53.912Z,1330
2018-02-27T12:40:03.910Z,1330
2018-02-27T12:41:13.384Z,1285
2018-02-27T12:42:23.393Z,730
2018-02-27T12:43:33.402Z,855
2018-02-27T12:44:43.940Z,1335
2018-02-27T12:45:53.939Z,1460
2018-02-27T12:47:03.780Z,1565
2018-02-27T12:48:13.846Z,1225
2018-02-27T12:49:23.055Z,755
2018-02-27T12:50:33.055Z,675
2018-02-27T12:51:43.072Z,595
2018-02-27T12:52:52.972Z,1040
2018-02-27T12:54:02.712Z,540
2018-02-27T12:55:12.719Z,535
2018-02-27T12:56:22.455Z,565
2018-02-27T12:57:32.511Z,520
2018-02-27T12:58:42.503Z,505
2018-02-27T12:59:52.501Z,535
2018-02-27T13:01:02.240Z,545
2018-02-27T13:02:12.247Z,505
2018-02-27T13:03:22.245Z,455
2018-02-27T13:04:31.170Z,465
2018-02-27T13:05:41.168Z,480
2018-02-27T13:06:50.893Z,440
2018-02-27T13:08:00.892Z,415
2018-02-27T13:09:10.350Z,445
2018-02-27T13:10:20.396Z,430
2018-02-27T13:11:30.404Z,410
2018-02-27T13:12:40.400Z,415
2018-02-27T13:13:49.857Z,470
2018-02-27T13:14:59.586Z,500
2018-02-27T13:16:09.579Z,520
2018-02-27T13:17:19.571Z,560
2018-02-27T13:18:29.559Z,995
2018-02-27T13:19:38.785Z,880
2018-02-27T13:20:48.772Z,930
2018-02-27T13:21:58.235Z,790
2018-02-27T13:23:08.224Z,695
2018-02-27T13:24:17.947Z,640
2018-02-27T13:25:27.800Z,670
2018-02-27T13:26:37.541Z,610
2018-02-27T13:27:47.153Z,600
2018-02-27T13:28:57.151Z,625
2018-02-27T13:30:07.146Z,590
2018-02-27T13:31:16.608Z,620
2018-02-27T13:32:26.335Z,840
2018-02-27T13:33:36.322Z,995
2018-02-27T13:34:46.319Z,935
2018-02-27T13:35:56.307Z,860
2018-02-27T13:37:06.297Z,825
2018-02-27T13:38:16.023Z,840
2018-02-27T13:39:26.013Z,635
2018-02-27T13:40:36.006Z,535
2018-02-27T13:41:45.731Z,555
2018-02-27T13:42:55.851Z,510
2018-02-27T13:44:05.863Z,440
2018-02-27T13:45:15.696Z,395
2018-02-27T13:46:25.426Z,360
2018-02-27T13:47:34.885Z,355
2018-02-27T13:48:55.670Z,295
2018-02-27T13:50:05.128Z,275
2018-02-27T13:51:14.848Z,285
2018-02-27T13:52:25.232Z,285
2018-02-27T13:53:35.278Z,315
2018-02-27T13:54:45.280Z,280
2018-02-27T13:55:55.272Z,280
2018-02-27T13:57:04.730Z,300
2018-02-27T13:58:14.741Z,330
2018-02-27T13:59:24.743Z,375
2018-02-27T14:00:34.468Z,500
2018-02-27T14:01:44.466Z,405
2018-02-27T14:02:54.473Z,475
2018-02-27T14:04:04.463Z,430
2018-02-27T14:05:14.452Z,430
2018-02-27T14:06:24.444Z,375
2018-02-27T14:07:34.166Z,360
2018-02-27T14:08:43.897Z,365
2018-02-27T14:09:53.354Z,345
2018-02-27T14:11:03.360Z,335
2018-02-27T14:12:13.350Z,330
2018-02-27T14:13:23.071Z,330
2018-02-27T14:14:32.799Z,310
2018-02-27T14:15:42.795Z,305
2018-02-27T14:16:52.793Z,315
2018-02-27T14:18:02.252Z,325
2018-02-27T14:19:11.993Z,315
2018-02-27T14:20:21.714Z,390
2018-02-27T14:21:31.435Z,445
2018-02-27T14:22:41.428Z,390
2018-02-27T14:23:51.417Z,375
2018-02-27T14:25:01.140Z,385
2018-02-27T14:26:10.871Z,315
2018-02-27T14:27:20.857Z,320
2018-02-27T14:28:30.577Z,310
2018-02-27T14:29:40.302Z,290
2018-02-27T14:30:50.289Z,345
2018-02-27T14:32:00.108Z,635
2018-02-27T14:33:09.831Z,810
2018-02-27T14:34:19.843Z,885
2018-02-27T14:35:29.278Z,640
2018-02-27T14:36:38.998Z,545
2018-02-27T14:37:48.724Z,670
2018-02-27T14:38:58.718Z,790
2018-02-27T14:40:08.170Z,680
2018-02-27T14:41:17.894Z,595
2018-02-27T14:42:27.888Z,630
2018-02-27T14:43:37.345Z,575
2018-02-27T14:44:47.070Z,500
2018-02-27T14:45:57.061Z,415
2018-02-27T14:47:07.047Z,330
2018-02-27T14:48:17.043Z,535
2018-02-27T14:49:27.044Z,585
2018-02-27T14:50:37.043Z,600
2018-02-27T14:51:47.028Z,625
2018-02-27T14:52:56.751Z,585
2018-02-27T14:54:06.747Z,495
2018-02-27T14:55:16.734Z,400
2018-02-27T14:56:26.725Z,345
2018-02-27T14:57:36.728Z,310
2018-02-27T14:58:46.712Z,290
2018-02-27T14:59:56.443Z,230
2018-02-27T15:01:06.440Z,235
2018-02-27T15:02:16.475Z,290
2018-02-27T15:03:26.464Z,360
2018-02-27T15:04:35.921Z,425
2018-02-27T15:05:45.914Z,455
2018-02-27T15:06:55.917Z,360
2018-02-27T15:08:05.644Z,375
2018-02-27T15:09:15.370Z,380
2018-02-27T15:10:25.093Z,350
2018-02-27T15:11:35.089Z,515
2018-02-27T15:12:44.816Z,495
2018-02-27T15:13:54.803Z,395
2018-02-27T15:15:04.278Z,430
2018-02-27T15:16:13.738Z,395
2018-02-27T15:17:23.733Z,435
2018-02-27T15:18:33.723Z,405
2018-02-27T15:19:43.708Z,340
2018-02-27T15:20:53.706Z,280
2018-02-27T15:22:03.426Z,375
2018-02-27T15:23:13.422Z,375
2018-02-27T15:24:23.146Z,395
2018-02-27T15:25:32.867Z,420
2018-02-27T15:26:42.934Z,390
2018-02-27T15:27:52.921Z,395
2018-02-27T15:29:02.909Z,375
2018-02-27T15:30:12.367Z,325
2018-02-27T15:31:22.088Z,315
2018-02-27T15:32:32.075Z,320
2018-02-27T15:33:41.796Z,225
2018-02-27T15:34:51.785Z,250
2018-02-27T15:36:01.770Z,470
2018-02-27T15:37:11.500Z,485
2018-02-27T15:38:21.484Z,480
2018-02-27T15:39:31.211Z,470
2018-02-27T15:40:41.198Z,465
2018-02-27T15:41:50.944Z,455
2018-02-27T15:43:00.668Z,425
2018-02-27T15:44:10.659Z,415
2018-02-27T15:45:20.650Z,400
2018-02-27T15:46:30.636Z,395
2018-02-27T15:47:40.092Z,370
2018-02-27T15:48:49.547Z,280
2018-02-27T15:49:59.588Z,225
2018-02-27T15:51:09.048Z,300
2018-02-27T15:52:18.768Z,305
2018-02-27T15:53:28.488Z,300
2018-02-27T15:54:38.206Z,295
2018-02-27T15:55:47.938Z,285
2018-02-27T15:56:57.931Z,260
2018-02-27T15:58:07.652Z,150
2018-02-27T15:59:17.637Z,180
2018-02-27T16:00:27.637Z,250
2018-02-27T16:01:37.355Z,170
2018-02-27T16:02:47.075Z,125
2018-02-27T16:03:57.063Z,120
2018-02-27T16:05:06.895Z,110
2018-02-27T16:06:16.613Z,100
2018-02-27T16:07:26.334Z,105
2018-02-27T16:08:36.052Z,110
2018-02-27T16:09:46.155Z,95
2018-02-27T16:10:55.947Z,85
2018-02-27T16:12:05.671Z,75
2018-02-27T16:13:15.127Z,70
2018-02-27T16:14:24.580Z,60
2018-02-27T16:15:34.030Z,55
2018-02-27T16:16:44.024Z,55
2018-02-27T16:17:53.743Z,50
2018-02-27T16:19:03.201Z,45
2018-02-27T16:20:13.196Z,45
2018-02-27T16:21:23.190Z,45
2018-02-27T16:22:33.191Z,40
2018-02-27T16:23:42.639Z,35
2018-02-27T16:24:52.084Z,40
2018-02-27T16:26:01.800Z,40
2018-02-27T16:27:11.912Z,35
2018-02-27T16:28:21.964Z,30
2018-02-27T16:29:31.961Z,30
2018-02-27T16:30:41.678Z,25
2018-02-27T16:31:50.597Z,25